Time;durP1;ratioP1;P1;durP2;ratioP2;P2;SDS_P1;SDS_P2;PMS_P1;PMS_P2;Temp;Humidity;BMP_temperature;BMP_pressure;BME280_temperature;BME280_humidity;BME280_pressure;Samples;Min_cycle;Max_cycle;Signal;HPM_P1;HPM_P2
2023/02/26 00:01:27;;;;;;;3.92;1.05;;;1.00;99.90;;;;;;4999791;28;20505;-83
2023/02/26 00:03:59;;;;;;;4.75;1.23;;;0.90;99.90;;;;;;5016882;28;20033;-83
2023/02/26 00:06:26;;;;;;;4.80;1.15;;;0.80;99.90;;;;;;5006486;28;20097;-83
2023/02/26 00:08:54;;;;;;;3.08;1.33;;;0.80;99.90;;;;;;5018516;28;20037;-82
2023/02/26 00:11:21;;;;;;;4.43;1.08;;;0.70;99.90;;;;;;5018936;28;20477;-85
2023/02/26 00:13:47;;;;;;;3.50;1.17;;;0.70;99.90;;;;;;5020401;28;20046;-83
2023/02/26 00:16:32;;;;;;;3.67;1.20;;;0.60;99.90;;;;;;4998803;28;20063;-84
2023/02/26 00:19:06;;;;;;;4.45;0.95;;;0.60;99.90;;;;;;5004411;28;20124;-83
2023/02/26 00:21:34;;;;;;;3.72;1.52;;;0.60;99.90;;;;;;4986352;28;20053;-83
2023/02/26 00:24:01;;;;;;;3.58;1.10;;;0.60;99.90;;;;;;5000958;28;20131;-82
2023/02/26 00:26:32;;;;;;;2.10;1.10;;;0.60;99.90;;;;;;5016315;28;20448;-82
2023/02/26 00:29:00;;;;;;;5.30;1.50;;;0.60;99.90;;;;;;5018665;28;20124;-84
2023/02/26 00:31:26;;;;;;;2.92;1.45;;;0.60;99.90;;;;;;5001296;28;20033;-83
2023/02/26 00:33:54;;;;;;;5.68;1.10;;;0.60;99.90;;;;;;4989761;28;20042;-83
2023/02/26 00:36:36;;;;;;;6.10;1.38;;;0.50;99.90;;;;;;5018699;28;20041;-82
2023/02/26 00:39:59;;;;;;;2.40;0.95;;;0.50;99.90;;;;;;5006184;28;20029;-83
2023/02/26 00:42:25;;;;;;;3.28;0.85;;;0.50;99.90;;;;;;4919711;29;21008;-83
2023/02/26 00:44:52;;;;;;;2.75;1.00;;;0.50;99.90;;;;;;4987946;28;20038;-84
2023/02/26 00:47:31;;;;;;;1.77;0.80;;;0.50;99.90;;;;;;4989694;28;20417;-82
2023/02/26 00:50:20;;;;;;;4.75;0.98;;;0.50;99.90;;;;;;5004891;28;20034;-83
2023/02/26 00:53:01;;;;;;;4.60;0.88;;;0.50;99.90;;;;;;5004645;28;20136;-82
2023/02/26 00:55:26;;;;;;;4.50;1.10;;;0.50;99.90;;;;;;5004508;28;20033;-82
2023/02/26 00:57:55;;;;;;;4.00;1.13;;;0.50;99.90;;;;;;5021659;28;20107;-83
2023/02/26 01:00:30;;;;;;;3.55;0.80;;;0.50;99.90;;;;;;4988638;28;20505;-82
2023/02/26 01:02:57;;;;;;;2.45;0.85;;;0.50;99.90;;;;;;4999596;28;20041;-82
2023/02/26 01:05:24;;;;;;;2.97;0.95;;;0.40;99.90;;;;;;4988881;28;20034;-82
2023/02/26 01:08:19;;;;;;;4.22;0.95;;;0.40;99.90;;;;;;4998704;28;20390;-83
2023/02/26 01:10:45;;;;;;;2.38;0.90;;;0.40;99.90;;;;;;4993049;28;20041;-83
2023/02/26 01:13:12;;;;;;;6.93;1.25;;;0.40;99.90;;;;;;5005053;28;20060;-83
2023/02/26 01:15:41;;;;;;;2.95;0.80;;;0.40;99.90;;;;;;4999081;28;20041;-83
2023/02/26 01:18:22;;;;;;;4.38;1.20;;;0.40;99.90;;;;;;4999625;28;20484;-83
2023/02/26 01:21:04;;;;;;;3.75;1.00;;;0.40;99.90;;;;;;4983344;28;20044;-83
2023/02/26 01:23:40;;;;;;;4.43;0.90;;;0.40;99.90;;;;;;5018687;28;20041;-82
2023/02/26 01:26:26;;;;;;;2.70;0.65;;;0.40;99.90;;;;;;4987798;28;20083;-83
2023/02/26 01:28:52;;;;;;;3.95;0.80;;;0.40;99.90;;;;;;4997957;28;20076;-83
2023/02/26 01:31:53;;;;;;;2.78;1.10;;;0.30;99.90;;;;;;4984966;28;20366;-83
2023/02/26 01:34:41;;;;;;;4.07;0.68;;;0.30;99.90;;;;;;4994551;28;20026;-83
2023/02/26 01:37:45;;;;;;;2.20;0.60;;;0.30;99.90;;;;;;4994088;28;20139;-83
2023/02/26 01:40:35;;;;;;;3.72;0.93;;;0.30;99.90;;;;;;4996631;28;20034;-82
2023/02/26 01:43:13;;;;;;;3.92;1.05;;;0.20;99.90;;;;;;4996959;28;20061;-83
2023/02/26 01:46:06;;;;;;;3.97;1.15;;;0.30;99.90;;;;;;4981545;28;20141;-83
2023/02/26 01:48:52;;;;;;;2.90;0.88;;;0.20;99.90;;;;;;5001998;28;20056;-83
2023/02/26 01:51:39;;;;;;;6.18;1.98;;;0.20;99.90;;;;;;4999124;28;20100;-83
2023/02/26 01:54:05;;;;;;;5.43;1.85;;;0.10;99.90;;;;;;4996937;28;20058;-84
2023/02/26 01:56:30;;;;;;;3.83;0.90;;;0.10;99.90;;;;;;4996378;28;20464;-83
2023/02/26 01:58:57;;;;;;;3.15;0.80;;;0.10;99.90;;;;;;5001594;28;20441;-84
2023/02/26 02:01:23;;;;;;;2.70;1.13;;;0.10;99.90;;;;;;5001145;28;20042;-84
2023/02/26 02:03:49;;;;;;;2.97;0.90;;;0.00;99.90;;;;;;4996928;28;20053;-83
2023/02/26 02:06:28;;;;;;;3.40;0.85;;;0.00;99.90;;;;;;4997869;28;20052;-83
2023/02/26 02:08:54;;;;;;;2.78;0.85;;;0.00;99.90;;;;;;4996867;28;20133;-83
2023/02/26 02:11:20;;;;;;;2.53;0.90;;;-0.10;99.90;;;;;;4986018;28;20054;-83
2023/02/26 02:14:07;;;;;;;2.80;0.80;;;-0.20;99.90;;;;;;5001304;28;20034;-83
2023/02/26 02:17:06;;;;;;;2.63;0.77;;;-0.20;99.90;;;;;;4996204;28;20046;-83
2023/02/26 02:19:50;;;;;;;3.78;0.80;;;-0.20;99.90;;;;;;4997451;28;20058;-83
2023/02/26 02:22:47;;;;;;;3.17;0.88;;;-0.20;99.90;;;;;;4998326;28;20145;-84
2023/02/26 02:25:47;;;;;;;3.53;0.90;;;-0.30;99.90;;;;;;4981450;28;20055;-83
2023/02/26 02:28:48;;;;;;;2.22;0.70;;;-0.30;99.90;;;;;;5011395;28;20077;-84
2023/02/26 02:31:34;;;;;;;5.45;1.25;;;-0.30;99.90;;;;;;4954671;28;20049;-83
2023/02/26 02:34:40;;;;;;;3.33;0.70;;;-0.40;99.90;;;;;;5000375;28;20482;-83
2023/02/26 02:37:16;;;;;;;4.40;0.90;;;-0.40;99.90;;;;;;4957087;28;20057;-84
2023/02/26 02:40:04;;;;;;;1.52;0.50;;;-0.50;99.90;;;;;;5001799;28;20053;-83
2023/02/26 02:42:52;;;;;;;4.03;0.90;;;-0.50;99.90;;;;;;4993697;28;20037;-84
2023/02/26 02:45:36;;;;;;;3.67;0.93;;;-0.50;99.90;;;;;;5004152;28;20083;-82
2023/02/26 02:48:09;;;;;;;4.53;0.90;;;-0.50;99.90;;;;;;5019804;28;20549;-82
2023/02/26 02:50:47;;;;;;;2.67;0.60;;;-0.60;99.90;;;;;;5004206;28;20773;-83
2023/02/26 02:53:19;;;;;;;3.75;0.70;;;-0.60;99.90;;;;;;5024788;28;20033;-83
2023/02/26 02:56:14;;;;;;;2.70;0.68;;;-0.60;99.90;;;;;;5005036;28;20037;-83
2023/02/26 02:58:48;;;;;;;2.92;0.90;;;-0.60;99.90;;;;;;5008281;28;20037;-84
2023/02/26 03:01:17;;;;;;;4.25;1.00;;;-0.50;99.90;;;;;;4995305;28;20049;-83
2023/02/26 03:04:04;;;;;;;2.38;0.70;;;-0.50;99.90;;;;;;5005259;28;20389;-82
2023/02/26 03:06:30;;;;;;;1.67;0.88;;;-0.60;99.90;;;;;;5004761;28;20064;-83
2023/02/26 03:09:00;;;;;;;4.28;0.85;;;-0.60;99.90;;;;;;5012778;28;20057;-82
2023/02/26 03:11:28;;;;;;;2.42;1.00;;;-0.60;99.90;;;;;;5033795;28;20033;-83
2023/02/26 03:13:53;;;;;;;3.22;0.77;;;-0.60;99.90;;;;;;5002204;28;20045;-83
2023/02/26 03:16:38;;;;;;;5.78;1.35;;;-0.60;99.90;;;;;;5006973;28;20175;-82
2023/02/26 03:19:37;;;;;;;3.38;0.63;;;-0.60;99.90;;;;;;5019382;28;20034;-83
2023/02/26 03:22:17;;;;;;;1.92;0.60;;;-0.60;99.90;;;;;;5006762;28;20056;-83
2023/02/26 03:24:50;;;;;;;3.53;0.70;;;-0.60;99.90;;;;;;5020423;28;20057;-83
2023/02/26 03:27:19;;;;;;;;;;;-0.70;99.90;;;;;;5015956;28;20040;-83
2023/02/26 03:30:07;;;;;;;3.13;0.90;;;-0.70;99.90;;;;;;5003306;28;20374;-83
2023/02/26 03:32:44;;;;;;;3.13;0.95;;;-0.70;99.90;;;;;;5002352;28;20124;-84
2023/02/26 03:35:34;;;;;;;2.15;0.75;;;-0.70;99.90;;;;;;5005998;28;20057;-84
2023/02/26 03:38:04;;;;;;;3.33;0.70;;;-0.70;99.90;;;;;;5000247;28;20120;-83
2023/02/26 03:40:41;;;;;;;5.45;0.93;;;-0.70;99.90;;;;;;5019547;28;20117;-83
2023/02/26 03:43:23;;;;;;;2.67;0.73;;;-0.70;99.90;;;;;;5000615;28;20044;-83
2023/02/26 03:45:53;;;;;;;2.63;0.73;;;-0.80;99.90;;;;;;5003487;28;20038;-83
2023/02/26 03:48:24;;;;;;;3.13;0.57;;;-0.70;99.90;;;;;;5019217;28;20038;-83
2023/02/26 03:50:53;;;;;;;3.55;0.82;;;-0.70;99.90;;;;;;5007034;28;20029;-84
2023/02/26 03:53:25;;;;;;;2.47;0.70;;;-0.70;99.90;;;;;;5007166;28;20501;-83
2023/02/26 03:56:12;;;;;;;4.55;0.63;;;-0.80;99.90;;;;;;5002970;28;20033;-86
2023/02/26 03:58:41;;;;;;;2.65;0.60;;;-0.70;99.90;;;;;;5007163;28;20037;-83
2023/02/26 04:01:12;;;;;;;5.07;0.82;;;-0.80;99.90;;;;;;5000820;28;20049;-83
2023/02/26 04:04:05;;;;;;;2.05;1.50;;;-0.80;99.90;;;;;;5003308;28;20099;-83
2023/02/26 04:06:32;;;;;;;3.83;0.63;;;-0.80;99.90;;;;;;5001919;28;20042;-83
2023/02/26 04:09:00;;;;;;;2.33;0.77;;;-0.80;99.90;;;;;;4990544;28;20037;-83
2023/02/26 04:11:29;;;;;;;3.65;0.70;;;-0.80;99.90;;;;;;5006035;28;20041;-83
2023/02/26 04:13:56;;;;;;;3.25;0.57;;;-0.90;99.90;;;;;;5020561;28;20430;-83
2023/02/26 04:16:22;;;;;;;2.08;0.52;;;-0.90;99.90;;;;;;5002076;28;20057;-83
2023/02/26 04:18:48;;;;;;;3.28;0.50;;;-0.90;99.90;;;;;;5003651;28;20037;-84
2023/02/26 04:21:17;;;;;;;3.83;0.75;;;-1.00;99.90;;;;;;5006132;28;20046;-83
2023/02/26 04:23:43;;;;;;;3.35;0.63;;;-1.00;99.90;;;;;;4991503;28;20063;-83
2023/02/26 04:26:10;;;;;;;2.42;0.52;;;-1.00;99.90;;;;;;5020258;28;20485;-82
2023/02/26 04:28:36;;;;;;;2.85;0.55;;;-1.10;99.90;;;;;;5018898;28;20500;-83
2023/02/26 04:31:03;;;;;;;1.27;0.50;;;-1.10;99.90;;;;;;5001930;28;20041;-83
2023/02/26 04:33:30;;;;;;;5.03;0.68;;;-1.10;99.90;;;;;;5019258;28;20033;-83
2023/02/26 04:35:56;;;;;;;6.10;0.80;;;-1.10;99.90;;;;;;5000827;28;20048;-83
2023/02/26 04:38:23;;;;;;;2.63;0.50;;;-1.10;99.90;;;;;;5018169;28;20049;-84
2023/02/26 04:40:50;;;;;;;4.13;0.63;;;-1.10;99.90;;;;;;5006230;28;20041;-83
2023/02/26 04:43:16;;;;;;;1.52;0.45;;;-1.00;99.90;;;;;;4989547;28;20474;-84
2023/02/26 04:45:45;;;;;;;2.35;1.13;;;-1.00;99.90;;;;;;5000435;28;20152;-83
2023/02/26 04:48:11;;;;;;;4.03;0.50;;;-1.00;99.90;;;;;;5011761;28;20446;-83
2023/02/26 04:50:37;;;;;;;1.85;0.55;;;-1.00;99.90;;;;;;5017010;28;20121;-82
2023/02/26 04:53:06;;;;;;;2.22;0.60;;;-1.00;99.90;;;;;;5017339;28;20042;-84
2023/02/26 04:55:35;;;;;;;3.25;0.63;;;-1.00;99.90;;;;;;5019860;28;20095;-83
2023/02/26 04:58:02;;;;;;;3.58;0.47;;;-1.00;99.90;;;;;;5010252;28;20120;-83
2023/02/26 05:00:30;;;;;;;2.22;0.65;;;-1.00;99.90;;;;;;5005784;28;20056;-84
2023/02/26 05:02:56;;;;;;;2.38;0.50;;;-1.00;99.90;;;;;;5004510;28;20057;-84
2023/02/26 05:05:22;;;;;;;4.70;0.70;;;-1.00;99.90;;;;;;4990682;28;20212;-84
2023/02/26 05:07:47;;;;;;;3.03;0.50;;;-0.90;99.90;;;;;;5006155;28;20124;-84
2023/02/26 05:10:13;;;;;;;4.43;0.60;;;-0.90;99.90;;;;;;5005660;28;20041;-84
2023/02/26 05:12:40;;;;;;;5.65;0.90;;;-0.90;99.90;;;;;;5007428;28;20045;-83
2023/02/26 05:15:06;;;;;;;5.40;0.77;;;-0.90;99.90;;;;;;5022700;28;20022;-84
2023/02/26 05:17:32;;;;;;;6.13;1.02;;;-0.90;99.90;;;;;;5005952;28;20120;-84
2023/02/26 05:19:58;;;;;;;6.38;0.90;;;-0.90;99.90;;;;;;5002580;28;20091;-84
2023/02/26 05:22:24;;;;;;;5.70;0.70;;;-0.90;99.90;;;;;;5004694;28;20044;-83
2023/02/26 05:24:49;;;;;;;3.45;0.50;;;-0.90;99.90;;;;;;4993416;28;20042;-84
2023/02/26 05:27:18;;;;;;;3.33;1.02;;;-0.90;99.90;;;;;;5002500;28;20025;-84
2023/02/26 05:29:44;;;;;;;1.83;0.50;;;-0.90;99.90;;;;;;5018885;28;20033;-84
2023/02/26 05:32:10;;;;;;;3.65;1.17;;;-0.90;99.90;;;;;;5016238;28;20869;-84
2023/02/26 05:34:36;;;;;;;2.83;0.80;;;-0.90;99.90;;;;;;5005197;28;20048;-84
2023/02/26 05:37:02;;;;;;;3.22;0.85;;;-0.90;99.90;;;;;;5002221;28;20049;-84
2023/02/26 05:39:28;;;;;;;4.80;0.70;;;-0.90;99.90;;;;;;5006175;28;20034;-83
2023/02/26 05:41:54;;;;;;;2.63;0.50;;;-0.90;99.90;;;;;;5000573;28;20072;-84
2023/02/26 05:44:21;;;;;;;3.38;0.40;;;-1.00;99.90;;;;;;4984528;28;20125;-82
2023/02/26 05:46:46;;;;;;;3.10;0.40;;;-1.00;99.90;;;;;;5019466;28;20044;-84
2023/02/26 05:49:12;;;;;;;3.90;0.55;;;-0.90;99.90;;;;;;5004579;28;20034;-84
2023/02/26 05:51:38;;;;;;;2.70;0.50;;;-0.90;99.90;;;;;;5018422;28;20044;-82
2023/02/26 05:54:04;;;;;;;2.03;0.45;;;-0.90;99.90;;;;;;4985766;28;20049;-84
2023/02/26 05:56:30;;;;;;;4.13;0.60;;;-0.90;99.90;;;;;;5003282;28;20049;-83
2023/02/26 05:58:56;;;;;;;2.75;0.60;;;-0.90;99.90;;;;;;5003679;28;20545;-82
2023/02/26 06:01:25;;;;;;;4.60;0.68;;;-0.90;99.90;;;;;;5001920;28;20037;-82
2023/02/26 06:03:55;;;;;;;2.00;0.60;;;-0.90;99.90;;;;;;5019778;28;20048;-84
2023/02/26 06:06:26;;;;;;;3.35;0.50;;;-0.90;99.90;;;;;;5007137;28;20120;-83
2023/02/26 06:08:52;;;;;;;3.00;0.80;;;-0.90;99.90;;;;;;5023616;28;20131;-84
2023/02/26 06:11:17;;;;;;;3.67;0.60;;;-0.90;99.90;;;;;;5008812;28;20128;-84
2023/02/26 06:13:43;;;;;;;2.53;0.60;;;-0.90;99.90;;;;;;5014077;28;20025;-84
2023/02/26 06:16:09;;;;;;;2.42;0.45;;;-0.90;99.90;;;;;;5011269;28;20030;-83
2023/02/26 06:18:34;;;;;;;2.65;0.50;;;-1.00;99.90;;;;;;4996287;28;20549;-83
2023/02/26 06:21:01;;;;;;;5.05;0.40;;;-0.90;99.90;;;;;;5024120;28;20133;-85
2023/02/26 06:23:27;;;;;;;4.68;0.50;;;-0.90;99.90;;;;;;5025801;28;20041;-83
2023/02/26 06:25:58;;;;;;;3.40;0.60;;;-0.90;99.90;;;;;;5007057;28;20084;-84
2023/02/26 06:28:27;;;;;;;2.15;0.57;;;-0.90;99.90;;;;;;5008596;28;20386;-85
2023/02/26 06:30:52;;;;;;;2.10;0.52;;;-0.90;99.90;;;;;;5006606;28;20041;-82
2023/02/26 06:33:18;;;;;;;3.33;0.73;;;-1.00;99.90;;;;;;5022560;28;20345;-83
2023/02/26 06:35:44;;;;;;;2.25;0.50;;;-0.90;99.90;;;;;;5005627;28;20137;-83
2023/02/26 06:38:13;;;;;;;2.40;0.50;;;-0.90;99.90;;;;;;5007301;28;20140;-84
2023/02/26 06:40:39;;;;;;;3.38;0.55;;;-0.90;99.90;;;;;;4990491;28;20156;-82
2023/02/26 06:43:04;;;;;;;5.05;0.73;;;-0.90;99.90;;;;;;5006469;28;20109;-84
2023/02/26 06:45:33;;;;;;;3.35;0.75;;;-0.90;99.90;;;;;;5004647;28;20149;-84
2023/02/26 06:47:59;;;;;;;3.03;0.63;;;-0.90;99.90;;;;;;5002261;28;20045;-83
2023/02/26 06:50:24;;;;;;;3.22;0.50;;;-0.90;99.90;;;;;;5006133;28;20072;-84
2023/02/26 06:52:53;;;;;;;2.60;0.30;;;-0.90;99.90;;;;;;5008953;28;20042;-86
2023/02/26 06:55:25;;;;;;;2.28;0.50;;;-0.90;99.90;;;;;;5007879;28;20140;-85
2023/02/26 06:57:54;;;;;;;4.63;0.50;;;-0.80;99.90;;;;;;5005067;28;20042;-84
2023/02/26 07:00:22;;;;;;;3.10;0.52;;;-0.80;99.90;;;;;;5004627;28;20037;-83
2023/02/26 07:02:51;;;;;;;2.80;0.50;;;-0.80;99.90;;;;;;5006996;28;20526;-83
2023/02/26 07:05:18;;;;;;;2.60;0.65;;;-0.80;99.90;;;;;;4976798;28;20046;-84
2023/02/26 07:07:48;;;;;;;3.42;1.00;;;-0.70;99.90;;;;;;5009327;28;20026;-85
2023/02/26 07:10:14;;;;;;;2.55;0.70;;;-0.70;99.90;;;;;;5020868;28;20030;-84
2023/02/26 07:13:03;;;;;;;3.78;0.63;;;-0.70;99.90;;;;;;5009110;28;20045;-84
2023/02/26 07:15:30;;;;;;;4.65;0.60;;;-0.70;99.90;;;;;;5005140;28;20038;-83
2023/02/26 07:17:58;;;;;;;3.58;0.50;;;-0.60;99.90;;;;;;5002122;28;20042;-84
2023/02/26 07:20:29;;;;;;;5.07;0.70;;;-0.60;99.90;;;;;;5004166;28;20046;-83
2023/02/26 07:22:56;;;;;;;3.33;0.68;;;-0.50;99.90;;;;;;5004906;28;20137;-84
2023/02/26 07:25:22;;;;;;;4.60;0.60;;;-0.50;99.90;;;;;;5001618;28;20049;-83
2023/02/26 07:27:50;;;;;;;4.15;0.60;;;-0.50;99.90;;;;;;5004425;28;20043;-83
2023/02/26 07:30:22;;;;;;;2.53;0.73;;;-0.40;99.90;;;;;;5006264;28;20042;-83
2023/02/26 07:33:01;;;;;;;2.28;0.85;;;-0.40;99.90;;;;;;5006028;28;20470;-85
2023/02/26 07:35:35;;;;;;;3.45;0.50;;;-0.30;99.90;;;;;;5009742;28;20368;-86
2023/02/26 07:38:01;;;;;;;5.22;0.60;;;-0.30;99.90;;;;;;5012302;28;20058;-83
2023/02/26 07:40:32;;;;;;;6.75;0.73;;;-0.20;99.90;;;;;;5006305;28;20026;-84
2023/02/26 07:42:59;;;;;;;1.80;0.50;;;-0.10;99.90;;;;;;5001329;28;20038;-84
2023/02/26 07:45:26;;;;;;;2.03;0.40;;;-0.10;99.90;;;;;;5003589;28;20424;-83
2023/02/26 07:47:56;;;;;;;1.98;0.60;;;0.00;99.90;;;;;;4999582;28;20050;-84
2023/02/26 07:50:23;;;;;;;2.15;0.47;;;0.00;99.90;;;;;;5004435;28;20529;-86
2023/02/26 07:52:53;;;;;;;1.92;0.52;;;0.00;99.90;;;;;;5002432;28;20164;-84
2023/02/26 07:55:32;;;;;;;2.50;0.63;;;0.10;99.90;;;;;;5003683;28;20042;-84
2023/02/26 07:58:09;;;;;;;5.10;1.50;;;0.20;99.90;;;;;;5001708;28;20109;-84
2023/02/26 08:00:34;;;;;;;2.90;0.60;;;0.20;99.90;;;;;;5002464;28;20046;-84
2023/02/26 08:03:06;;;;;;;4.20;0.60;;;0.30;99.90;;;;;;5003657;28;20034;-82
2023/02/26 08:05:36;;;;;;;4.53;1.15;;;0.40;99.90;;;;;;5003628;28;20047;-83
2023/02/26 08:08:05;;;;;;;2.67;0.60;;;0.40;99.90;;;;;;5002946;28;20133;-84
2023/02/26 08:10:33;;;;;;;1.73;0.50;;;0.50;99.90;;;;;;4998463;28;20104;-84
2023/02/26 08:13:05;;;;;;;1.30;0.30;;;0.50;99.90;;;;;;5002579;28;20045;-85
2023/02/26 08:15:34;;;;;;;4.28;0.63;;;0.60;99.90;;;;;;5001641;28;20030;-85
2023/02/26 08:18:08;;;;;;;7.70;0.90;;;0.60;99.90;;;;;;5001743;28;20121;-84
2023/02/26 08:20:43;;;;;;;3.85;0.70;;;0.70;99.90;;;;;;5001294;28;20041;-84
2023/02/26 08:23:22;;;;;;;3.08;0.65;;;0.80;99.90;;;;;;5017455;28;20133;-85
2023/02/26 08:25:53;;;;;;;3.83;0.70;;;0.80;99.90;;;;;;5000095;28;20481;-85
2023/02/26 08:28:22;;;;;;;2.03;0.60;;;0.80;99.90;;;;;;5001633;28;20034;-84
2023/02/26 08:30:52;;;;;;;4.38;0.50;;;0.90;99.90;;;;;;4986813;28;20125;-85
2023/02/26 08:33:18;;;;;;;3.00;0.77;;;1.00;99.90;;;;;;5005121;28;20505;-83
2023/02/26 08:35:47;;;;;;;3.55;0.70;;;1.10;99.90;;;;;;5003410;28;20045;-83
2023/02/26 08:38:40;;;;;;;5.15;0.68;;;1.10;99.90;;;;;;4997439;28;20058;-83
2023/02/26 08:41:12;;;;;;;3.92;0.80;;;1.20;99.90;;;;;;5002905;28;20041;-83
2023/02/26 08:43:41;;;;;;;2.40;0.70;;;1.30;99.90;;;;;;5002338;28;20042;-83
2023/02/26 08:46:13;;;;;;;2.20;0.50;;;1.30;99.90;;;;;;4998352;28;20112;-84
2023/02/26 08:48:45;;;;;;;2.72;0.50;;;1.40;99.90;;;;;;5002167;28;20038;-82
2023/02/26 08:51:34;;;;;;;6.30;0.80;;;1.50;99.90;;;;;;4995302;28;20140;-84
2023/02/26 08:54:09;;;;;;;3.58;0.68;;;1.50;99.90;;;;;;5000431;28;20054;-84
2023/02/26 08:56:38;;;;;;;2.15;0.60;;;1.60;99.90;;;;;;5000531;28;20042;-83
2023/02/26 08:59:13;;;;;;;7.40;1.38;;;1.70;99.90;;;;;;5000067;28;20038;-83
2023/02/26 09:01:54;;;;;;;5.85;0.70;;;1.70;99.90;;;;;;4996459;28;20057;-83
2023/02/26 09:04:29;;;;;;;3.22;0.55;;;1.80;99.90;;;;;;4994177;28;20045;-84
2023/02/26 09:07:13;;;;;;;4.93;0.70;;;1.90;99.90;;;;;;4996124;28;20053;-83
2023/02/26 09:09:49;;;;;;;2.88;0.70;;;2.00;99.90;;;;;;5000447;28;20039;-83
2023/02/26 09:12:21;;;;;;;5.25;0.88;;;2.00;99.90;;;;;;4994980;28;20049;-83
2023/02/26 09:14:48;;;;;;;3.70;0.70;;;2.10;99.90;;;;;;4983641;28;20034;-84
2023/02/26 09:17:15;;;;;;;3.90;0.60;;;2.10;99.90;;;;;;4999721;28;20039;-82
2023/02/26 09:19:40;;;;;;;3.40;0.75;;;2.20;99.90;;;;;;4994713;28;20380;-83
2023/02/26 09:22:06;;;;;;;4.75;0.93;;;2.20;99.90;;;;;;4995432;28;20041;-83
2023/02/26 09:24:33;;;;;;;1.35;0.75;;;2.30;99.90;;;;;;4994807;28;20049;-82
2023/02/26 09:27:02;;;;;;;3.03;0.40;;;2.40;99.90;;;;;;4982599;28;20514;-83
2023/02/26 09:29:29;;;;;;;3.63;0.77;;;2.50;99.90;;;;;;4996324;28;20509;-84
2023/02/26 09:31:55;;;;;;;3.78;0.65;;;2.60;99.90;;;;;;4995109;28;20065;-82
2023/02/26 09:34:29;;;;;;;8.25;0.88;;;3.20;99.90;;;;;;4999731;28;20053;-84
2023/02/26 09:36:59;;;;;;;3.58;0.55;;;4.80;99.90;;;;;;4995030;28;20038;-84
2023/02/26 09:39:26;;;;;;;3.22;0.50;;;6.20;99.90;;;;;;5014599;28;20053;-82
2023/02/26 09:41:56;;;;;;;3.60;0.55;;;7.20;99.90;;;;;;4998882;28;20315;-83
2023/02/26 09:44:32;;;;;;;2.28;0.52;;;8.30;99.90;;;;;;4986177;28;20305;-83
2023/02/26 09:47:23;;;;;;;1.92;0.50;;;9.10;99.90;;;;;;4997143;28;20132;-84
2023/02/26 09:50:00;;;;;;;2.22;0.60;;;9.90;99.90;;;;;;5015374;28;20041;-83
2023/02/26 09:52:44;;;;;;;4.10;0.60;;;10.60;99.90;;;;;;5016405;28;20030;-83
2023/02/26 09:55:25;;;;;;;2.53;0.50;;;11.00;99.90;;;;;;4996067;28;20052;-82
2023/02/26 09:58:01;;;;;;;2.78;0.52;;;11.30;99.90;;;;;;4999562;28;20135;-83
2023/02/26 10:00:32;;;;;;;2.47;0.47;;;11.60;99.90;;;;;;4999216;28;20026;-83
2023/02/26 10:03:10;;;;;;;2.08;0.50;;;11.90;99.90;;;;;;5015409;28;20085;-84
2023/02/26 10:06:07;;;;;;;1.50;0.43;;;12.60;99.90;;;;;;4987235;28;20033;-84
2023/02/26 10:09:01;;;;;;;1.42;0.43;;;13.10;99.90;;;;;;5002255;28;20104;-83
2023/02/26 10:11:35;;;;;;;1.55;0.40;;;12.90;99.90;;;;;;4967569;28;20048;-83
2023/02/26 10:14:46;;;;;;;1.63;0.43;;;13.10;99.90;;;;;;5015132;28;20033;-83
2023/02/26 10:18:00;;;;;;;1.90;0.40;;;13.50;98.80;;;;;;5015424;28;20045;-83
2023/02/26 10:20:43;;;;;;;3.22;0.70;;;14.00;99.00;;;;;;4965910;28;20048;-81
2023/02/26 10:23:34;;;;;;;1.87;0.43;;;14.00;95.80;;;;;;4986180;28;20137;-83
2023/02/26 10:26:05;;;;;;;1.77;0.50;;;13.70;95.40;;;;;;5014099;28;20052;-85
2023/02/26 10:28:51;;;;;;;2.88;0.60;;;14.10;96.30;;;;;;5016642;28;20044;-82
2023/02/26 10:32:12;;;;;;;2.28;0.65;;;14.70;95.40;;;;;;4998512;28;20064;-84
2023/02/26 10:34:45;;;;;;;1.85;0.60;;;15.20;92.90;;;;;;4945278;28;20122;-82
2023/02/26 10:37:39;;;;;;;;;;;15.10;93.10;;;;;;4996361;28;20060;-83
2023/02/26 10:40:25;;;;;;;1.77;0.50;;;14.90;91.20;;;;;;5013778;28;19924;-85
2023/02/26 10:43:02;;;;;;;1.73;0.50;;;14.90;91.50;;;;;;4997432;28;20298;-85
2023/02/26 10:45:47;;;;;;;1.85;0.50;;;15.10;90.90;;;;;;5015438;28;20532;-83
2023/02/26 10:48:39;;;;;;;2.13;0.50;;;15.30;90.00;;;;;;4997106;28;20120;-84
2023/02/26 10:51:20;;;;;;;1.52;0.52;;;15.40;90.00;;;;;;5015129;28;20045;-83
2023/02/26 10:54:17;;;;;;;2.78;0.57;;;15.60;88.60;;;;;;5005362;28;20049;-83
2023/02/26 10:56:42;;;;;;;1.15;0.40;;;15.50;86.40;;;;;;5018730;28;20037;-82
2023/02/26 10:59:24;;;;;;;1.77;0.47;;;15.10;86.70;;;;;;4986110;28;20479;-83
2023/02/26 11:01:54;;;;;;;2.50;0.60;;;15.00;86.30;;;;;;5018029;28;20034;-83
2023/02/26 11:04:26;;;;;;;3.33;0.60;;;14.80;85.60;;;;;;5000556;28;20049;-84
2023/02/26 11:06:58;;;;;;;3.50;0.68;;;14.50;86.10;;;;;;5001571;28;20099;-83
2023/02/26 11:09:35;;;;;;;3.58;0.60;;;14.50;86.50;;;;;;5005219;28;20042;-83
2023/02/26 11:12:19;;;;;;;1.77;0.40;;;15.00;84.80;;;;;;5017637;28;20033;-84
2023/02/26 11:14:48;;;;;;;3.42;0.50;;;15.00;83.80;;;;;;5002557;28;20041;-85
2023/02/26 11:17:28;;;;;;;3.13;0.60;;;15.10;83.80;;;;;;5002936;28;20470;-83
2023/02/26 11:20:40;;;;;;;2.20;0.60;;;15.20;82.60;;;;;;5001818;28;20486;-83
2023/02/26 11:23:13;;;;;;;2.10;0.45;;;15.40;81.30;;;;;;5012415;28;20076;-83
2023/02/26 11:25:45;;;;;;;2.53;0.37;;;15.40;81.80;;;;;;5002249;28;20052;-83
2023/02/26 11:28:43;;;;;;;2.25;0.45;;;14.90;81.30;;;;;;5001582;28;20045;-82
2023/02/26 11:31:14;;;;;;;2.70;0.47;;;14.50;80.30;;;;;;5002743;28;20041;-84
2023/02/26 11:34:03;;;;;;;2.58;0.50;;;14.60;82.90;;;;;;4993301;28;20080;-82
2023/02/26 11:36:33;;;;;;;1.65;0.57;;;15.30;81.60;;;;;;5023806;28;20473;-82
2023/02/26 11:39:18;;;;;;;2.13;0.50;;;15.40;81.60;;;;;;5003879;28;20061;-83
2023/02/26 11:41:54;;;;;;;2.10;0.60;;;15.90;80.80;;;;;;5004629;28;20366;-81
2023/02/26 11:44:38;;;;;;;1.05;0.38;;;16.10;80.90;;;;;;4983318;28;20046;-82
2023/02/26 11:47:38;;;;;;;3.05;0.70;;;16.20;80.60;;;;;;5000295;28;20120;-82
2023/02/26 11:50:17;;;;;;;1.10;0.40;;;16.60;80.60;;;;;;5001671;28;20474;-82
2023/02/26 11:52:54;;;;;;;2.90;0.68;;;17.00;80.10;;;;;;4998103;28;20041;-83
2023/02/26 11:55:37;;;;;;;2.88;0.60;;;16.90;77.30;;;;;;4998032;28;20041;-82
2023/02/26 11:58:15;;;;;;;1.48;0.50;;;16.90;78.20;;;;;;4999003;28;20129;-83
2023/02/26 12:00:48;;;;;;;3.60;0.50;;;17.20;78.10;;;;;;4999040;28;20037;-83
2023/02/26 12:03:19;;;;;;;2.42;0.70;;;17.10;76.50;;;;;;5002306;28;20046;-82
2023/02/26 12:05:56;;;;;;;2.05;0.40;;;17.00;75.50;;;;;;4995949;28;20052;-82
2023/02/26 12:08:43;;;;;;;2.80;0.57;;;16.90;75.10;;;;;;4996699;28;20462;-82
2023/02/26 12:11:47;;;;;;;3.45;0.40;;;16.30;73.80;;;;;;4998597;28;20033;-84
2023/02/26 12:14:34;;;;;;;;;;;16.40;75.30;;;;;;4998333;28;20387;-82
2023/02/26 12:17:38;;;;;;;2.15;0.50;;;16.50;75.70;;;;;;4998166;28;19986;-82
2023/02/26 12:20:21;;;;;;;2.15;0.85;;;17.00;75.30;;;;;;4954630;28;20044;-84
2023/02/26 12:22:53;;;;;;;2.25;0.70;;;17.30;75.40;;;;;;4996845;28;20044;-83
2023/02/26 12:25:37;;;;;;;2.83;0.50;;;17.40;76.00;;;;;;4997407;28;20041;-83
2023/02/26 12:28:21;;;;;;;2.28;0.70;;;17.80;75.10;;;;;;4996766;28;20034;-85
2023/02/26 12:31:05;;;;;;;2.70;0.50;;;17.70;72.40;;;;;;4997788;28;20113;-84
2023/02/26 12:33:47;;;;;;;1.27;0.52;;;17.00;71.60;;;;;;4984105;28;20055;-83
2023/02/26 12:36:52;;;;;;;1.23;0.40;;;16.90;72.50;;;;;;4999929;28;20044;-84
2023/02/26 12:39:45;;;;;;;2.72;0.57;;;17.00;72.30;;;;;;5009433;28;20061;-83
2023/02/26 12:42:50;;;;;;;1.00;0.40;;;17.40;72.90;;;;;;4999090;28;20049;-84
2023/02/26 12:45:46;;;;;;;1.98;0.50;;;17.50;72.90;;;;;;5002786;28;20060;-82
2023/02/26 12:48:33;;;;;;;1.70;0.38;;;17.70;72.30;;;;;;5017056;28;20084;-83
2023/02/26 12:51:19;;;;;;;2.03;0.52;;;17.90;73.20;;;;;;5018356;28;20497;-84
2023/02/26 12:54:25;;;;;;;2.35;0.50;;;18.10;72.10;;;;;;5000073;28;20036;-81
2023/02/26 12:57:30;;;;;;;1.23;0.40;;;18.10;71.40;;;;;;5002865;28;20034;-86
2023/02/26 13:00:28;;;;;;;1.35;0.50;;;18.30;72.30;;;;;;5014600;28;20038;-82
2023/02/26 13:03:39;;;;;;;2.70;0.40;;;18.50;72.20;;;;;;5006666;28;20057;-83
2023/02/26 13:06:46;;;;;;;1.05;0.30;;;18.50;70.30;;;;;;4999736;28;20065;-82
2023/02/26 13:09:29;;;;;;;1.05;0.50;;;18.30;71.20;;;;;;5000552;28;20072;-83
2023/02/26 13:12:26;;;;;;;1.17;0.40;;;18.30;70.70;;;;;;4997956;28;20038;-82
2023/02/26 13:15:31;;;;;;;2.45;0.63;;;18.30;71.70;;;;;;4998459;28;20132;-82
2023/02/26 13:18:40;;;;;;;2.50;0.70;;;18.60;70.90;;;;;;4998108;28;20051;-82
2023/02/26 13:21:43;;;;;;;1.88;0.70;;;18.70;71.00;;;;;;5013743;28;20050;-83
2023/02/26 13:24:25;;;;;;;2.72;0.50;;;18.90;70.90;;;;;;4987635;28;20083;-83
2023/02/26 13:26:52;;;;;;;2.20;0.68;;;18.60;68.70;;;;;;4999412;28;20041;-84
2023/02/26 13:29:34;;;;;;;1.45;0.60;;;18.20;69.90;;;;;;5002830;28;20041;-84
2023/02/26 13:32:13;;;;;;;2.17;0.55;;;18.10;69.70;;;;;;4987749;28;20037;-84
2023/02/26 13:35:02;;;;;;;1.33;0.40;;;17.70;68.10;;;;;;4999532;28;22296;-82
2023/02/26 13:37:38;;;;;;;0.85;0.43;;;17.40;69.20;;;;;;5000713;28;20607;-83